createdAt,value
2023-08-20T00:01:34.537Z,99812.16
2023-08-20T00:04:01.531Z,99747.34
2023-08-20T00:06:28.660Z,99815.72
2023-08-20T00:08:55.450Z,99779.63
2023-08-20T00:11:22.225Z,99791.94
2023-08-20T00:13:48.994Z,99817.69
2023-08-20T00:16:16.068Z,99799.38
2023-08-20T00:18:46.163Z,99789.94
2023-08-20T00:21:15.225Z,99821.00
2023-08-20T00:23:42.201Z,99803.59
2023-08-20T00:26:09.449Z,99815.81
2023-08-20T00:28:38.054Z,99815.91
2023-08-20T00:31:04.995Z,99783.63
2023-08-20T00:33:33.291Z,99814.47
2023-08-20T00:36:00.047Z,99808.41
2023-08-20T00:38:27.138Z,99795.41
2023-08-20T00:40:54.424Z,99810.16
2023-08-20T00:43:21.614Z,99816.94
2023-08-20T00:45:48.441Z,99831.19
2023-08-20T00:48:15.957Z,99775.66
2023-08-20T00:50:42.989Z,99766.41
2023-08-20T00:53:11.705Z,99796.69
2023-08-20T00:55:38.658Z,99831.22
2023-08-20T00:58:06.100Z,99808.56
2023-08-20T01:00:33.148Z,99810.38
2023-08-20T01:03:00.191Z,99804.19
2023-08-20T01:05:27.305Z,99772.13
2023-08-20T01:08:11.182Z,99803.44
2023-08-20T01:11:10.512Z,99797.09
2023-08-20T01:13:37.322Z,99789.25
2023-08-20T01:16:04.473Z,99754.97
2023-08-20T01:18:31.304Z,99798.28
2023-08-20T01:21:03.616Z,99779.47
2023-08-20T01:24:12.896Z,99796.16
2023-08-20T01:27:08.225Z,99790.44
2023-08-20T01:29:35.739Z,99795.06
2023-08-20T01:32:06.104Z,99805.31
2023-08-20T01:34:32.902Z,99783.06
2023-08-20T01:36:59.624Z,99784.91
2023-08-20T01:39:26.370Z,99805.41
2023-08-20T01:41:53.196Z,99802.97
2023-08-20T01:44:19.903Z,99797.41
2023-08-20T01:46:47.891Z,99797.53
2023-08-20T01:49:14.703Z,99817.16
2023-08-20T01:51:41.551Z,99812.22
2023-08-20T01:54:08.362Z,99821.34
2023-08-20T01:56:37.241Z,99818.84
2023-08-20T01:59:04.136Z,99819.88
2023-08-20T02:01:31.068Z,99797.59
2023-08-20T02:03:57.980Z,99830.22
2023-08-20T02:06:24.823Z,99794.31
2023-08-20T02:08:51.910Z,99732.84
2023-08-20T02:11:18.695Z,99780.25
2023-08-20T02:13:51.729Z,99843.59
2023-08-20T02:16:18.446Z,99838.69
2023-08-20T02:18:45.274Z,99813.56
2023-08-20T02:21:12.273Z,99828.88
2023-08-20T02:23:42.310Z,99835.47
2023-08-20T02:26:09.516Z,99824.94
2023-08-20T02:28:36.416Z,99832.75
2023-08-20T02:31:07.209Z,99821.06
2023-08-20T02:33:33.992Z,99824.44
2023-08-20T02:36:04.688Z,99823.72
2023-08-20T02:38:32.302Z,99830.34
2023-08-20T02:41:09.045Z,99839.03
2023-08-20T02:43:35.808Z,99839.59
2023-08-20T02:46:03.703Z,99822.75
2023-08-20T02:48:31.138Z,99825.19
2023-08-20T02:50:57.929Z,99835.34
2023-08-20T02:53:25.093Z,99839.53
2023-08-20T02:55:52.086Z,99848.50
2023-08-20T02:58:18.830Z,99835.88
2023-08-20T03:00:46.305Z,99848.63
2023-08-20T03:03:13.791Z,99831.72
2023-08-20T03:05:46.566Z,99840.53
2023-08-20T03:08:15.694Z,99777.06
2023-08-20T03:10:42.579Z,99779.56
2023-08-20T03:13:09.344Z,99802.81
2023-08-20T03:15:36.066Z,99803.13
2023-08-20T03:18:03.018Z,99812.25
2023-08-20T03:20:32.079Z,99776.03
2023-08-20T03:22:59.345Z,99780.69
2023-08-20T03:25:26.482Z,99778.09
2023-08-20T03:27:53.296Z,99796.56
2023-08-20T03:30:23.277Z,99759.44
2023-08-20T03:32:50.682Z,99737.28
2023-08-20T03:35:17.950Z,99698.34
2023-08-20T03:37:45.197Z,99723.81
2023-08-20T03:40:12.281Z,99780.69
2023-08-20T03:42:39.145Z,99731.16
2023-08-20T03:45:06.439Z,99761.16
2023-08-20T03:47:35.911Z,99758.22
2023-08-20T03:50:02.877Z,99763.38
2023-08-20T03:52:29.616Z,99765.09
2023-08-20T03:54:56.704Z,99780.25
2023-08-20T03:57:23.570Z,99771.72
2023-08-20T03:59:50.236Z,99763.78
2023-08-20T04:02:17.085Z,99763.16
2023-08-20T04:04:43.951Z,99761.16
2023-08-20T04:07:10.625Z,99759.00
2023-08-20T04:09:37.844Z,99754.00
2023-08-20T04:12:05.679Z,99759.56
2023-08-20T04:14:32.442Z,99764.78
2023-08-20T04:16:59.306Z,99764.16
2023-08-20T04:19:26.333Z,99773.41
2023-08-20T04:21:55.509Z,99763.38
2023-08-20T04:24:22.485Z,99744.50
2023-08-20T04:26:49.785Z,99736.31
2023-08-20T04:29:16.556Z,99761.13
2023-08-20T04:31:43.332Z,99731.56
2023-08-20T04:34:10.146Z,99762.75
2023-08-20T04:36:37.117Z,99739.34
2023-08-20T04:39:05.882Z,99715.91
2023-08-20T04:41:32.808Z,99733.34
2023-08-20T04:43:59.679Z,99736.94
2023-08-20T04:46:26.566Z,99728.50
2023-08-20T04:48:53.576Z,99753.69
2023-08-20T04:51:20.344Z,99761.78
2023-08-20T04:53:48.616Z,99755.69
2023-08-20T04:56:15.357Z,99744.41
2023-08-20T04:58:42.147Z,99732.72
2023-08-20T05:01:10.081Z,99742.28
2023-08-20T05:03:36.990Z,99749.59
2023-08-20T05:06:04.376Z,99726.31
2023-08-20T05:08:31.161Z,99754.50
2023-08-20T05:11:01.118Z,99750.72
2023-08-20T05:13:27.922Z,99737.53
2023-08-20T05:15:54.625Z,99743.56
2023-08-20T05:18:21.353Z,99736.03
2023-08-20T05:20:48.323Z,99745.72
2023-08-20T05:23:15.125Z,99735.97
2023-08-20T05:25:41.998Z,99759.38
2023-08-20T05:28:08.851Z,99757.69
2023-08-20T05:30:35.928Z,99755.34
2023-08-20T05:33:03.048Z,99756.38
2023-08-20T05:35:29.962Z,99749.59
2023-08-20T05:38:00.059Z,99747.47
2023-08-20T05:40:26.862Z,99742.75
2023-08-20T05:42:53.833Z,99737.94
2023-08-20T05:45:22.139Z,99707.50
2023-08-20T05:47:48.872Z,99740.84
2023-08-20T05:50:15.872Z,99726.69
2023-08-20T05:52:42.698Z,99736.09
2023-08-20T05:55:09.602Z,99732.56
2023-08-20T05:57:38.092Z,99729.78
2023-08-20T06:00:08.273Z,99732.41
2023-08-20T06:02:35.243Z,99719.81
2023-08-20T06:05:02.278Z,99733.34
2023-08-20T06:07:29.074Z,99675.09
2023-08-20T06:10:01.993Z,99731.22
2023-08-20T06:12:28.650Z,99735.28
2023-08-20T06:14:56.610Z,99729.41
2023-08-20T06:17:23.339Z,99731.34
2023-08-20T06:19:52.805Z,99724.31
2023-08-20T06:22:19.843Z,99719.09
2023-08-20T06:24:46.596Z,99729.25
2023-08-20T06:27:13.644Z,99716.16
2023-08-20T06:29:40.457Z,99725.16
2023-08-20T06:32:07.470Z,99715.72
2023-08-20T06:34:37.696Z,99713.28
2023-08-20T06:37:04.548Z,99718.16
2023-08-20T06:39:31.646Z,99724.84
2023-08-20T06:41:58.660Z,99715.91
2023-08-20T06:44:25.751Z,99699.59
2023-08-20T06:46:52.713Z,99689.41
2023-08-20T06:49:19.971Z,99698.06
2023-08-20T06:51:46.955Z,99716.44
2023-08-20T06:54:15.669Z,99675.38
2023-08-20T06:56:42.632Z,99718.44
2023-08-20T06:59:09.430Z,99712.09
2023-08-20T07:01:36.162Z,99711.50
2023-08-20T07:04:04.613Z,99712.56
2023-08-20T07:06:31.696Z,99715.38
2023-08-20T07:08:58.458Z,99718.53
2023-08-20T07:11:25.404Z,99713.28
2023-08-20T07:13:56.476Z,99713.63
2023-08-20T07:16:23.401Z,99671.88
2023-08-20T07:18:50.278Z,99712.38
2023-08-20T07:21:19.319Z,99713.91
2023-08-20T07:23:46.431Z,99714.31
2023-08-20T07:26:13.542Z,99693.25
2023-08-20T07:29:00.837Z,99706.78
2023-08-20T07:31:33.269Z,99709.00
2023-08-20T07:34:05.704Z,99717.97
2023-08-20T07:36:33.305Z,99676.81
2023-08-20T07:39:02.352Z,99705.88
2023-08-20T07:41:29.509Z,99689.66
2023-08-20T07:43:56.314Z,99709.09
2023-08-20T07:46:23.166Z,99703.44
2023-08-20T07:48:50.023Z,99703.03
2023-08-20T07:51:17.179Z,99655.31
2023-08-20T07:53:44.028Z,99686.09
2023-08-20T07:56:10.815Z,99679.69
2023-08-20T07:58:37.836Z,99650.78
2023-08-20T08:01:04.663Z,99703.53
2023-08-20T08:03:31.721Z,99699.13
2023-08-20T08:05:58.796Z,99687.34
2023-08-20T08:08:28.261Z,99683.31
2023-08-20T08:10:55.172Z,99668.41
2023-08-20T08:13:23.813Z,99675.44
2023-08-20T08:15:54.025Z,99592.25
2023-08-20T08:18:21.687Z,99684.78
2023-08-20T08:20:48.517Z,99667.56
2023-08-20T08:23:15.650Z,99644.25
2023-08-20T08:25:42.885Z,99649.06
2023-08-20T08:28:09.778Z,99657.94
2023-08-20T08:30:36.833Z,99679.16
2023-08-20T08:33:06.247Z,99664.19
2023-08-20T08:35:33.460Z,99681.47
2023-08-20T08:38:00.277Z,99685.69
2023-08-20T08:40:30.521Z,99670.75
2023-08-20T08:42:57.720Z,99649.41
2023-08-20T08:45:24.592Z,99665.53
2023-08-20T08:47:52.466Z,99645.22
2023-08-20T08:50:19.316Z,99654.94
2023-08-20T08:52:52.138Z,99626.25
2023-08-20T08:55:23.206Z,99648.72
2023-08-20T08:57:50.217Z,99644.47
2023-08-20T09:00:17.423Z,99629.22
2023-08-20T09:02:44.438Z,99609.22
2023-08-20T09:05:11.368Z,99631.75
2023-08-20T09:07:46.506Z,99628.63
2023-08-20T09:10:13.497Z,99652.63
2023-08-20T09:12:40.813Z,99588.84
2023-08-20T09:15:12.316Z,99652.81
2023-08-20T09:17:39.363Z,99653.22
2023-08-20T09:20:06.968Z,99645.94
2023-08-20T09:22:33.909Z,99659.22
2023-08-20T09:25:01.968Z,99638.66
2023-08-20T09:27:31.557Z,99631.78
2023-08-20T09:29:59.384Z,99622.19
2023-08-20T09:32:30.562Z,99632.56
2023-08-20T09:34:57.797Z,99571.94
2023-08-20T09:37:25.760Z,99631.78
2023-08-20T09:39:52.538Z,99631.97
2023-08-20T09:42:19.588Z,99631.28
2023-08-20T09:44:50.310Z,99595.50
2023-08-20T09:47:19.932Z,99578.16
2023-08-20T09:49:48.758Z,99616.63
2023-08-20T09:52:49.992Z,99609.06
2023-08-20T09:55:23.528Z,99607.84
2023-08-20T09:57:51.091Z,99612.94
2023-08-20T10:00:17.925Z,99615.06
2023-08-20T10:02:45.534Z,99595.53
2023-08-20T10:05:13.717Z,99603.97
2023-08-20T10:07:40.771Z,99598.38
2023-08-20T10:10:09.441Z,99597.97
2023-08-20T10:12:37.368Z,99598.84
2023-08-20T10:15:08.314Z,99599.38
2023-08-20T10:17:36.001Z,99585.28
2023-08-20T10:20:06.797Z,99599.13
2023-08-20T10:22:36.855Z,99571.38
2023-08-20T10:25:10.338Z,99563.75
2023-08-20T10:27:39.656Z,99572.28
2023-08-20T10:30:16.485Z,99544.38
2023-08-20T10:32:53.563Z,99576.53
2023-08-20T10:35:29.144Z,99563.88
2023-08-20T10:38:14.088Z,99566.38
2023-08-20T10:40:55.663Z,99511.41
2023-08-20T10:43:36.042Z,99568.88
2023-08-20T10:46:22.729Z,99570.44
2023-08-20T10:48:50.552Z,99578.84
2023-08-20T10:51:19.011Z,99577.41
2023-08-20T10:54:01.489Z,99562.97
2023-08-20T10:57:00.349Z,99587.03
2023-08-20T10:59:34.275Z,99562.59
2023-08-20T11:02:01.724Z,99574.16
2023-08-20T11:04:34.122Z,99565.69
2023-08-20T11:07:05.987Z,99576.75
2023-08-20T11:09:33.084Z,99588.84
2023-08-20T11:12:00.275Z,99512.19
2023-08-20T11:14:28.652Z,99566.72
2023-08-20T11:16:55.565Z,99568.22
2023-08-20T11:19:24.119Z,99558.16
2023-08-20T11:21:51.628Z,99495.66
2023-08-20T11:24:22.166Z,99505.13
2023-08-20T11:26:49.482Z,99507.50
2023-08-20T11:29:21.451Z,99552.88
2023-08-20T11:31:49.602Z,99541.53
2023-08-20T11:34:17.024Z,99535.38
2023-08-20T11:36:43.842Z,99533.19
2023-08-20T11:39:10.781Z,99512.13
2023-08-20T11:41:39.122Z,99515.06
2023-08-20T11:44:06.322Z,99522.06
2023-08-20T11:46:33.358Z,99517.34
2023-08-20T11:49:01.958Z,99514.53
2023-08-20T11:51:34.818Z,99496.44
2023-08-20T11:54:01.686Z,99472.59
2023-08-20T11:56:29.036Z,99501.59
2023-08-20T11:59:00.652Z,99496.88
2023-08-20T12:01:27.652Z,99495.78
2023-08-20T12:03:54.665Z,99501.28
2023-08-20T12:06:22.400Z,99493.41
2023-08-20T12:08:49.448Z,99494.66
2023-08-20T12:11:16.165Z,99475.41
2023-08-20T12:13:43.044Z,99479.56
2023-08-20T12:16:12.679Z,99470.47
2023-08-20T12:18:40.480Z,99457.28
2023-08-20T12:21:11.092Z,99471.81
2023-08-20T12:23:37.850Z,99484.72
2023-08-20T12:26:05.061Z,99471.44
2023-08-20T12:28:31.879Z,99448.19
2023-08-20T12:31:01.582Z,99465.84
2023-08-20T12:33:29.449Z,99463.09
2023-08-20T12:35:56.761Z,99460.88
2023-08-20T12:38:25.868Z,99456.22
2023-08-20T12:40:57.235Z,99460.16
2023-08-20T12:43:26.721Z,99435.66
2023-08-20T12:45:53.641Z,99437.56
2023-08-20T12:48:20.344Z,99374.84
2023-08-20T12:50:47.798Z,99424.94
2023-08-20T12:53:14.644Z,99411.00
2023-08-20T12:55:41.490Z,99431.44
2023-08-20T12:58:08.365Z,99440.19
2023-08-20T13:00:35.072Z,99428.50
2023-08-20T13:03:07.888Z,99435.53
2023-08-20T13:05:35.326Z,99431.66
2023-08-20T13:08:02.436Z,99440.94
2023-08-20T13:10:31.101Z,99380.97
2023-08-20T13:13:01.717Z,99409.03
2023-08-20T13:15:28.911Z,99424.56
2023-08-20T13:17:56.860Z,99423.38
2023-08-20T13:20:25.270Z,99433.03
2023-08-20T13:22:53.086Z,99403.09
2023-08-20T13:25:23.680Z,99417.72
2023-08-20T13:27:53.142Z,99412.97
2023-08-20T13:30:23.038Z,99411.16
2023-08-20T13:32:50.750Z,99399.22
2023-08-20T13:35:17.751Z,99402.66
2023-08-20T13:37:44.524Z,99393.28
2023-08-20T13:40:11.734Z,99392.25
2023-08-20T13:42:39.119Z,99378.88
2023-08-20T13:45:06.960Z,99403.00
2023-08-20T13:47:33.889Z,99391.75
2023-08-20T13:50:00.946Z,99389.88
2023-08-20T13:52:27.733Z,99367.31
2023-08-20T13:54:54.539Z,99385.25
2023-08-20T13:57:21.255Z,99379.84
2023-08-20T13:59:48.002Z,99383.09
2023-08-20T14:02:15.006Z,99378.28
2023-08-20T14:04:41.688Z,99349.00
2023-08-20T14:07:08.898Z,99370.09
2023-08-20T14:09:37.593Z,99369.84
2023-08-20T14:12:04.955Z,99366.63
2023-08-20T14:14:32.133Z,99362.31
2023-08-20T14:17:05.204Z,99366.03
2023-08-20T14:19:32.015Z,99359.94
2023-08-20T14:22:01.164Z,99330.91
2023-08-20T14:24:28.109Z,99315.97
2023-08-20T14:26:54.798Z,99350.91
2023-08-20T14:29:21.677Z,99340.34
2023-08-20T14:31:54.268Z,99334.13
2023-08-20T14:34:21.291Z,99316.69
2023-08-20T14:36:48.157Z,99306.88
2023-08-20T14:39:15.232Z,99326.81
2023-08-20T14:41:42.088Z,99286.09
2023-08-20T14:44:08.869Z,99359.13
2023-08-20T14:46:35.669Z,99304.94
2023-08-20T14:49:02.733Z,99357.44
2023-08-20T14:51:29.856Z,99363.03
2023-08-20T14:54:00.147Z,99310.91
2023-08-20T14:56:27.213Z,99352.78
2023-08-20T14:58:54.288Z,99316.63
2023-08-20T15:01:21.215Z,99305.88
2023-08-20T15:03:47.945Z,99338.53
2023-08-20T15:06:15.770Z,99332.50
2023-08-20T15:08:42.629Z,99345.41
2023-08-20T15:11:09.492Z,99354.31
2023-08-20T15:13:36.900Z,99336.13
2023-08-20T15:16:04.174Z,99318.75
2023-08-20T15:18:32.556Z,99349.88
2023-08-20T15:21:00.250Z,99345.88
2023-08-20T15:23:28.936Z,99324.84
2023-08-20T15:25:57.365Z,99320.25
2023-08-20T15:28:26.726Z,99351.25
2023-08-20T15:30:54.821Z,99340.19
2023-08-20T15:33:21.901Z,99323.06
2023-08-20T15:35:48.860Z,99355.31
2023-08-20T15:38:16.645Z,99295.34
2023-08-20T15:40:43.638Z,99289.59
2023-08-20T15:43:12.628Z,99357.88
2023-08-20T15:45:39.348Z,99362.53
2023-08-20T15:48:06.946Z,99359.66
2023-08-20T15:50:33.891Z,99377.56
2023-08-20T15:53:06.353Z,99335.75
2023-08-20T15:55:33.291Z,99365.78
2023-08-20T15:58:00.034Z,99290.75
2023-08-20T16:00:33.092Z,99333.09
2023-08-20T16:03:05.947Z,99324.84
2023-08-20T16:05:32.880Z,99291.63
2023-08-20T16:07:59.946Z,99319.34
2023-08-20T16:10:30.059Z,99293.19
2023-08-20T16:12:56.757Z,99336.38
2023-08-20T16:15:23.837Z,99328.72
2023-08-20T16:17:50.800Z,99283.47
2023-08-20T16:20:20.970Z,99372.75
2023-08-20T16:22:47.743Z,99314.41
2023-08-20T16:25:17.669Z,99411.78
2023-08-20T16:27:45.143Z,99394.88
2023-08-20T16:30:12.865Z,99347.84
2023-08-20T16:32:40.026Z,99342.28
2023-08-20T16:35:07.801Z,99385.78
2023-08-20T16:37:35.532Z,99394.94
2023-08-20T16:40:06.195Z,99394.16
2023-08-20T16:42:33.025Z,99362.50
2023-08-20T16:45:00.010Z,99340.44
2023-08-20T16:47:26.716Z,99343.56
2023-08-20T16:49:53.750Z,99390.78
2023-08-20T16:52:21.785Z,99403.69
2023-08-20T16:54:49.483Z,99389.53
2023-08-20T16:57:16.235Z,99387.03
2023-08-20T16:59:45.081Z,99402.03
2023-08-20T17:02:14.738Z,99348.69
2023-08-20T17:04:44.702Z,99368.25
2023-08-20T17:07:11.843Z,99422.78
2023-08-20T17:09:41.692Z,99407.75
2023-08-20T17:12:14.281Z,99419.41
2023-08-20T17:14:41.340Z,99399.63
2023-08-20T17:17:08.725Z,99376.25
2023-08-20T17:19:35.489Z,99432.69
2023-08-20T17:22:02.493Z,99407.91
2023-08-20T17:24:29.269Z,99421.03
2023-08-20T17:26:56.027Z,99417.91
2023-08-20T17:29:22.854Z,99437.84
2023-08-20T17:31:52.646Z,99440.75
2023-08-20T17:34:22.286Z,99428.47
2023-08-20T17:36:49.740Z,99431.38
2023-08-20T17:39:17.066Z,99440.72
2023-08-20T17:41:44.270Z,99394.16
2023-08-20T17:44:11.021Z,99405.81
2023-08-20T17:46:49.624Z,99461.34
2023-08-20T17:49:18.259Z,99445.84
2023-08-20T17:51:45.340Z,99453.56
2023-08-20T17:54:14.834Z,99414.91
2023-08-20T17:56:41.810Z,99456.88
2023-08-20T17:59:09.402Z,99456.31
2023-08-20T18:01:36.374Z,99447.22
2023-08-20T18:04:04.406Z,99414.66
2023-08-20T18:06:35.037Z,99444.09
2023-08-20T18:09:03.628Z,99444.53
2023-08-20T18:11:30.676Z,99438.50
2023-08-20T18:13:57.645Z,99447.03
2023-08-20T18:16:24.416Z,99461.06
2023-08-20T18:18:51.228Z,99458.97
2023-08-20T18:21:17.937Z,99453.75
2023-08-20T18:23:44.727Z,99447.84
2023-08-20T18:26:13.168Z,99437.38
2023-08-20T18:28:42.229Z,99434.25
2023-08-20T18:31:12.336Z,99413.72
2023-08-20T18:33:39.116Z,99422.66
2023-08-20T18:36:07.792Z,99455.19
2023-08-20T18:38:37.845Z,99474.72
2023-08-20T18:41:08.346Z,99472.41
2023-08-20T18:43:35.226Z,99394.94
2023-08-20T18:46:03.782Z,99436.19
2023-08-20T18:48:32.326Z,99375.13
2023-08-20T18:51:02.002Z,99446.03
2023-08-20T18:53:29.068Z,99441.25
2023-08-20T18:55:55.919Z,99402.34
2023-08-20T18:58:23.052Z,99467.66
2023-08-20T19:00:50.063Z,99436.56
2023-08-20T19:03:18.082Z,99462.25
2023-08-20T19:05:53.805Z,99467.66
2023-08-20T19:08:23.813Z,99444.56
2023-08-20T19:10:52.353Z,99449.47
2023-08-20T19:13:19.335Z,99477.16
2023-08-20T19:15:47.589Z,99459.63
2023-08-20T19:18:15.597Z,99465.94
2023-08-20T19:20:50.216Z,99474.66
2023-08-20T19:23:18.308Z,99434.38
2023-08-20T19:25:45.560Z,99482.19
2023-08-20T19:28:13.168Z,99406.66
2023-08-20T19:30:50.094Z,99467.22
2023-08-20T19:33:18.376Z,99412.22
2023-08-20T19:35:45.996Z,99457.31
2023-08-20T19:38:14.234Z,99469.59
2023-08-20T19:40:45.951Z,99473.13
2023-08-20T19:43:12.724Z,99475.75
2023-08-20T19:45:39.409Z,99478.44
2023-08-20T19:48:06.730Z,99479.19
2023-08-20T19:50:36.458Z,99480.13
2023-08-20T19:53:03.488Z,99480.50
2023-08-20T19:55:30.523Z,99483.00
2023-08-20T19:57:59.715Z,99494.53
2023-08-20T20:00:26.655Z,99463.19
2023-08-20T20:02:54.886Z,99489.19
2023-08-20T20:05:22.566Z,99496.47
2023-08-20T20:07:49.306Z,99496.53
2023-08-20T20:10:16.572Z,99484.38
2023-08-20T20:12:43.325Z,99503.41
2023-08-20T20:15:14.009Z,99480.00
2023-08-20T20:17:41.041Z,99498.94
2023-08-20T20:20:12.288Z,99486.41
2023-08-20T20:22:40.116Z,99460.31
2023-08-20T20:25:07.263Z,99481.00
2023-08-20T20:27:35.972Z,99494.56
2023-08-20T20:30:07.219Z,99479.03
2023-08-20T20:32:35.157Z,99495.09
2023-08-20T20:35:02.570Z,99471.88
2023-08-20T20:37:29.308Z,99472.75
2023-08-20T20:39:56.566Z,99477.84
2023-08-20T20:42:23.302Z,99487.97
2023-08-20T20:44:50.551Z,99492.59
2023-08-20T20:47:17.537Z,99475.88
2023-08-20T20:49:46.838Z,99480.63
2023-08-20T20:52:13.548Z,99491.38
2023-08-20T20:54:40.280Z,99443.56
2023-08-20T20:57:07.226Z,99505.63
2023-08-20T20:59:36.385Z,99501.22
2023-08-20T21:02:03.240Z,99474.59
2023-08-20T21:04:30.414Z,99486.47
2023-08-20T21:06:58.874Z,99504.22
2023-08-20T21:09:25.813Z,99494.91
2023-08-20T21:11:57.219Z,99515.38
2023-08-20T21:14:26.844Z,99492.09
2023-08-20T21:16:54.998Z,99454.75
2023-08-20T21:19:21.730Z,99505.53
2023-08-20T21:21:48.382Z,99495.38
2023-08-20T21:24:15.857Z,99491.22
2023-08-20T21:26:42.612Z,99485.72
2023-08-20T21:29:09.622Z,99498.78
2023-08-20T21:31:37.605Z,99491.50
2023-08-20T21:34:04.338Z,99505.44
2023-08-20T21:36:31.050Z,99506.31
2023-08-20T21:39:01.232Z,99492.59
2023-08-20T21:41:33.243Z,99462.97
2023-08-20T21:44:00.530Z,99496.97
2023-08-20T21:46:27.672Z,99452.91
2023-08-20T21:48:57.240Z,99460.16
2023-08-20T21:51:24.010Z,99482.41
2023-08-20T21:53:56.687Z,99413.78
2023-08-20T21:56:29.081Z,99465.16
2023-08-20T21:58:58.944Z,99505.66
2023-08-20T22:01:25.984Z,99443.22
2023-08-20T22:03:52.910Z,99461.47
2023-08-20T22:06:20.903Z,99406.56
2023-08-20T22:08:48.282Z,99492.09
2023-08-20T22:11:15.392Z,99434.22
2023-08-20T22:13:47.204Z,99458.97
2023-08-20T22:16:14.637Z,99458.78
2023-08-20T22:18:53.097Z,99433.56
2023-08-20T22:21:22.891Z,99396.72
2023-08-20T22:23:50.183Z,99451.13
2023-08-20T22:26:17.352Z,99485.78
2023-08-20T22:28:44.332Z,99500.88
2023-08-20T22:31:11.170Z,99498.53
2023-08-20T22:33:38.126Z,99496.88
2023-08-20T22:36:05.210Z,99469.53
2023-08-20T22:38:32.320Z,99446.78
2023-08-20T22:40:59.098Z,99465.34
2023-08-20T22:43:25.945Z,99461.34
2023-08-20T22:45:53.929Z,99485.44
2023-08-20T22:48:21.160Z,99466.50
2023-08-20T22:50:48.042Z,99471.69
2023-08-20T22:53:14.941Z,99415.94
2023-08-20T22:55:43.246Z,99487.28
2023-08-20T22:58:09.993Z,99433.56
2023-08-20T23:00:37.063Z,99473.09
2023-08-20T23:03:04.139Z,99473.28
2023-08-20T23:05:31.268Z,99490.22
2023-08-20T23:07:58.111Z,99487.69
2023-08-20T23:10:24.977Z,99465.41
2023-08-20T23:12:51.767Z,99470.47
2023-08-20T23:15:18.592Z,99468.09
2023-08-20T23:17:45.473Z,99465.44
2023-08-20T23:20:13.213Z,99484.00
2023-08-20T23:22:40.156Z,99476.47
2023-08-20T23:25:07.426Z,99481.50
2023-08-20T23:27:34.162Z,99497.44
2023-08-20T23:30:01.892Z,99482.88
2023-08-20T23:32:28.696Z,99470.94
2023-08-20T23:34:55.572Z,99476.31
2023-08-20T23:37:25.225Z,99489.09
2023-08-20T23:39:58.073Z,99445.31
2023-08-20T23:42:27.923Z,99503.00
2023-08-20T23:44:55.067Z,99459.75
2023-08-20T23:47:22.034Z,99484.72
2023-08-20T23:49:49.001Z,99498.28
2023-08-20T23:52:15.906Z,99471.63
2023-08-20T23:54:50.108Z,99443.97
2023-08-20T23:57:17.075Z,99399.72
2023-08-20T23:59:47.138Z,99416.00
